sensor_id;sensor_type;location;lat;lon;timestamp;pressure;altitude;pressure_sealevel;temperature;humidity
63691;BME280;49837;57.280;27.070;2022-09-01T00:00:51;100191.78;;;6.85;90.91
63691;BME280;49837;57.280;27.070;2022-09-01T00:01:52;100192.12;;;6.91;91.0
63691;BME280;49837;57.280;27.070;2022-09-01T00:02:52;100190.56;;;6.89;90.63
63691;BME280;49837;57.280;27.070;2022-09-01T00:03:54;100189.39;;;6.9;90.4
63691;BME280;49837;57.280;27.070;2022-09-01T00:04:53;100186.95;;;6.86;90.54
63691;BME280;49837;57.280;27.070;2022-09-01T00:05:53;100189.52;;;6.87;90.5
63691;BME280;49837;57.280;27.070;2022-09-01T00:06:54;100190.62;;;6.84;90.48
63691;BME280;49837;57.280;27.070;2022-09-01T00:07:54;100190.58;;;6.82;90.82
63691;BME280;49837;57.280;27.070;2022-09-01T00:08:56;100189.88;;;6.79;91.0
63691;BME280;49837;57.280;27.070;2022-09-01T00:09:55;100189.72;;;6.78;90.94
63691;BME280;49837;57.280;27.070;2022-09-01T00:10:55;100184.12;;;6.76;90.9
63691;BME280;49837;57.280;27.070;2022-09-01T00:11:56;100185.44;;;6.76;91.14
63691;BME280;49837;57.280;27.070;2022-09-01T00:12:56;100184.12;;;6.75;91.29
63691;BME280;49837;57.280;27.070;2022-09-01T00:13:58;100182.56;;;6.73;91.32
63691;BME280;49837;57.280;27.070;2022-09-01T00:14:57;100182.66;;;6.73;91.59
63691;BME280;49837;57.280;27.070;2022-09-01T00:16:01;100182.61;;;6.76;91.7
63691;BME280;49837;57.280;27.070;2022-09-01T00:17:00;100182.75;;;6.72;91.61
63691;BME280;49837;57.280;27.070;2022-09-01T00:17:59;100185.53;;;6.68;91.7
63691;BME280;49837;57.280;27.070;2022-09-01T00:18:59;100184.73;;;6.73;92.09
63691;BME280;49837;57.280;27.070;2022-09-01T00:20:00;100181.33;;;6.68;91.68
63691;BME280;49837;57.280;27.070;2022-09-01T00:21:00;100181.67;;;6.61;91.6
63691;BME280;49837;57.280;27.070;2022-09-01T00:22:01;100176.71;;;6.6;91.91
63691;BME280;49837;57.280;27.070;2022-09-01T00:23:01;100176.97;;;6.65;91.92
63691;BME280;49837;57.280;27.070;2022-09-01T00:24:02;100184.06;;;6.54;92.17
63691;BME280;49837;57.280;27.070;2022-09-01T00:25:03;100182.66;;;6.47;92.4
63691;BME280;49837;57.280;27.070;2022-09-01T00:26:02;100181.95;;;6.5;92.54
63691;BME280;49837;57.280;27.070;2022-09-01T00:27:03;100184.23;;;6.53;92.54
63691;BME280;49837;57.280;27.070;2022-09-01T00:28:03;100187.47;;;6.48;92.72
63691;BME280;49837;57.280;27.070;2022-09-01T00:29:04;100185.94;;;6.44;92.83
63691;BME280;49837;57.280;27.070;2022-09-01T00:30:04;100185.98;;;6.46;92.84
63691;BME280;49837;57.280;27.070;2022-09-01T00:31:05;100185.23;;;6.49;92.56
63691;BME280;49837;57.280;27.070;2022-09-01T00:32:04;100180.4;;;6.51;92.51
63691;BME280;49837;57.280;27.070;2022-09-01T00:33:05;100181.08;;;6.48;92.29
63691;BME280;49837;57.280;27.070;2022-09-01T00:34:05;100183.0;;;6.48;92.39
63691;BME280;49837;57.280;27.070;2022-09-01T00:35:06;100184.98;;;6.47;92.46
63691;BME280;49837;57.280;27.070;2022-09-01T00:36:06;100187.09;;;6.5;92.68
63691;BME280;49837;57.280;27.070;2022-09-01T00:37:07;100186.12;;;6.43;92.81
63691;BME280;49837;57.280;27.070;2022-09-01T00:38:07;100182.77;;;6.4;92.79
63691;BME280;49837;57.280;27.070;2022-09-01T00:39:07;100179.02;;;6.41;93.0
63691;BME280;49837;57.280;27.070;2022-09-01T00:40:09;100183.33;;;6.35;93.22
63691;BME280;49837;57.280;27.070;2022-09-01T00:41:08;100176.5;;;6.36;93.36
63691;BME280;49837;57.280;27.070;2022-09-01T00:42:08;100181.91;;;6.35;93.4
63691;BME280;49837;57.280;27.070;2022-09-01T00:44:15;100173.58;;;6.31;93.4
63691;BME280;49837;57.280;27.070;2022-09-01T00:45:14;100178.31;;;6.29;93.58
63691;BME280;49837;57.280;27.070;2022-09-01T00:46:23;100179.45;;;6.33;93.73
63691;BME280;49837;57.280;27.070;2022-09-01T00:47:16;100174.7;;;6.36;93.62
63691;BME280;49837;57.280;27.070;2022-09-01T00:48:17;100173.78;;;6.28;93.75
63691;BME280;49837;57.280;27.070;2022-09-01T00:49:21;100177.41;;;6.18;93.97
63691;BME280;49837;57.280;27.070;2022-09-01T00:50:20;100174.31;;;6.18;94.15
63691;BME280;49837;57.280;27.070;2022-09-01T00:51:20;100178.47;;;6.18;94.31
63691;BME280;49837;57.280;27.070;2022-09-01T00:53:25;100175.63;;;6.2;94.16
63691;BME280;49837;57.280;27.070;2022-09-01T00:54:29;100175.92;;;6.23;94.25
63691;BME280;49837;57.280;27.070;2022-09-01T00:55:29;100172.43;;;6.24;93.91
63691;BME280;49837;57.280;27.070;2022-09-01T00:56:31;100181.82;;;6.21;93.81
63691;BME280;49837;57.280;27.070;2022-09-01T00:57:30;100176.3;;;6.2;94.14
63691;BME280;49837;57.280;27.070;2022-09-01T00:58:31;100179.66;;;6.15;94.24
63691;BME280;49837;57.280;27.070;2022-09-01T00:59:31;100177.61;;;6.14;94.13
63691;BME280;49837;57.280;27.070;2022-09-01T01:00:33;100183.05;;;6.17;93.99
63691;BME280;49837;57.280;27.070;2022-09-01T01:01:32;100178.4;;;6.18;93.98
63691;BME280;49837;57.280;27.070;2022-09-01T01:02:32;100179.88;;;6.17;93.75
63691;BME280;49837;57.280;27.070;2022-09-01T01:03:32;100179.66;;;6.15;94.03
63691;BME280;49837;57.280;27.070;2022-09-01T01:04:33;100177.81;;;6.16;94.01
63691;BME280;49837;57.280;27.070;2022-09-01T01:05:37;100180.88;;;6.17;93.98
63691;BME280;49837;57.280;27.070;2022-09-01T01:06:35;100183.53;;;6.18;93.88
63691;BME280;49837;57.280;27.070;2022-09-01T01:07:35;100180.61;;;6.11;94.12
63691;BME280;49837;57.280;27.070;2022-09-01T01:08:37;100180.64;;;6.15;94.14
63691;BME280;49837;57.280;27.070;2022-09-01T01:09:39;100179.73;;;6.17;94.16
63691;BME280;49837;57.280;27.070;2022-09-01T01:10:40;100180.72;;;6.1;94.49
63691;BME280;49837;57.280;27.070;2022-09-01T01:11:39;100179.55;;;6.08;94.49
63691;BME280;49837;57.280;27.070;2022-09-01T01:12:39;100178.59;;;6.07;94.41
63691;BME280;49837;57.280;27.070;2022-09-01T01:14:02;100182.38;;;6.09;94.39
63691;BME280;49837;57.280;27.070;2022-09-01T01:14:40;100178.08;;;6.09;94.4
63691;BME280;49837;57.280;27.070;2022-09-01T01:15:43;100177.5;;;6.07;94.67
63691;BME280;49837;57.280;27.070;2022-09-01T01:16:47;100183.3;;;6.07;94.76
63691;BME280;49837;57.280;27.070;2022-09-01T01:17:45;100181.84;;;6.04;94.74
63691;BME280;49837;57.280;27.070;2022-09-01T01:18:45;100182.95;;;6.0;95.03
63691;BME280;49837;57.280;27.070;2022-09-01T01:19:49;100186.12;;;5.98;95.19
63691;BME280;49837;57.280;27.070;2022-09-01T01:20:47;100182.08;;;5.95;95.31
63691;BME280;49837;57.280;27.070;2022-09-01T01:21:47;100180.81;;;5.97;95.06
63691;BME280;49837;57.280;27.070;2022-09-01T01:24:52;100185.94;;;5.97;95.09
63691;BME280;49837;57.280;27.070;2022-09-01T01:25:58;100186.3;;;5.97;95.03
63691;BME280;49837;57.280;27.070;2022-09-01T01:26:56;100186.75;;;5.93;95.15
63691;BME280;49837;57.280;27.070;2022-09-01T01:28:57;100179.7;;;5.92;95.32
63691;BME280;49837;57.280;27.070;2022-09-01T01:30:00;100180.47;;;5.91;95.38
63691;BME280;49837;57.280;27.070;2022-09-01T01:31:06;100177.03;;;5.87;95.4
63691;BME280;49837;57.280;27.070;2022-09-01T01:31:59;100177.74;;;5.83;95.48
63691;BME280;49837;57.280;27.070;2022-09-01T01:33:00;100177.39;;;5.84;95.57
63691;BME280;49837;57.280;27.070;2022-09-01T01:34:00;100174.84;;;5.84;95.84
63691;BME280;49837;57.280;27.070;2022-09-01T01:35:00;100174.7;;;5.8;95.78
63691;BME280;49837;57.280;27.070;2022-09-01T01:36:01;100176.58;;;5.81;95.82
63691;BME280;49837;57.280;27.070;2022-09-01T01:37:01;100179.66;;;5.81;95.83
63691;BME280;49837;57.280;27.070;2022-09-01T01:38:03;100179.27;;;5.77;95.93
63691;BME280;49837;57.280;27.070;2022-09-01T01:39:09;100175.22;;;5.78;95.87
63691;BME280;49837;57.280;27.070;2022-09-01T01:40:03;100177.7;;;5.79;95.95
63691;BME280;49837;57.280;27.070;2022-09-01T01:41:03;100178.05;;;5.76;96.07
63691;BME280;49837;57.280;27.070;2022-09-01T01:42:04;100177.7;;;5.77;96.38
63691;BME280;49837;57.280;27.070;2022-09-01T01:43:04;100174.03;;;5.8;96.29
63691;BME280;49837;57.280;27.070;2022-09-01T01:44:04;100169.66;;;5.8;96.1
63691;BME280;49837;57.280;27.070;2022-09-01T01:45:05;100176.66;;;5.84;95.89
63691;BME280;49837;57.280;27.070;2022-09-01T01:46:07;100173.8;;;5.87;95.68
63691;BME280;49837;57.280;27.070;2022-09-01T01:47:10;100172.26;;;5.85;95.73
63691;BME280;49837;57.280;27.070;2022-09-01T01:48:09;100179.05;;;5.83;95.93
63691;BME280;49837;57.280;27.070;2022-09-01T01:49:11;100175.11;;;5.88;95.8
63691;BME280;49837;57.280;27.070;2022-09-01T01:50:09;100177.8;;;5.93;95.65
63691;BME280;49837;57.280;27.070;2022-09-01T01:51:10;100175.91;;;5.92;95.74
63691;BME280;49837;57.280;27.070;2022-09-01T01:52:12;100176.59;;;5.91;95.69
63691;BME280;49837;57.280;27.070;2022-09-01T01:53:10;100173.86;;;5.9;95.44
63691;BME280;49837;57.280;27.070;2022-09-01T01:54:11;100173.7;;;5.88;95.5
63691;BME280;49837;57.280;27.070;2022-09-01T01:55:12;100177.44;;;5.8;95.73
63691;BME280;49837;57.280;27.070;2022-09-01T01:56:12;100178.81;;;5.82;95.82
63691;BME280;49837;57.280;27.070;2022-09-01T01:57:12;100174.46;;;5.78;95.96
63691;BME280;49837;57.280;27.070;2022-09-01T01:58:12;100176.78;;;5.77;96.12
63691;BME280;49837;57.280;27.070;2022-09-01T01:59:13;100173.7;;;5.72;96.29
63691;BME280;49837;57.280;27.070;2022-09-01T02:00:18;100176.95;;;5.69;96.54
63691;BME280;49837;57.280;27.070;2022-09-01T02:01:16;100174.3;;;5.6;96.64
63691;BME280;49837;57.280;27.070;2022-09-01T02:02:16;100173.25;;;5.61;96.88
63691;BME280;49837;57.280;27.070;2022-09-01T02:03:19;100171.77;;;5.61;97.03
63691;BME280;49837;57.280;27.070;2022-09-01T02:04:18;100173.09;;;5.61;97.23
63691;BME280;49837;57.280;27.070;2022-09-01T02:05:20;100163.66;;;5.58;97.18
63691;BME280;49837;57.280;27.070;2022-09-01T02:06:18;100170.91;;;5.61;97.26
63691;BME280;49837;57.280;27.070;2022-09-01T02:07:18;100173.48;;;5.6;97.56
63691;BME280;49837;57.280;27.070;2022-09-01T02:08:20;100175.77;;;5.56;97.7
63691;BME280;49837;57.280;27.070;2022-09-01T02:09:19;100175.16;;;5.57;97.83
63691;BME280;49837;57.280;27.070;2022-09-01T02:10:20;100175.36;;;5.55;97.91
63691;BME280;49837;57.280;27.070;2022-09-01T02:11:20;100173.36;;;5.57;97.89
63691;BME280;49837;57.280;27.070;2022-09-01T02:12:20;100169.94;;;5.59;97.94
63691;BME280;49837;57.280;27.070;2022-09-01T02:13:22;100170.79;;;5.58;97.96
63691;BME280;49837;57.280;27.070;2022-09-01T02:14:23;100177.38;;;5.6;97.97
63691;BME280;49837;57.280;27.070;2022-09-01T02:15:23;100175.24;;;5.58;97.87
63691;BME280;49837;57.280;27.070;2022-09-01T02:16:25;100173.52;;;5.57;97.72
63691;BME280;49837;57.280;27.070;2022-09-01T02:17:24;100174.12;;;5.53;97.67
63691;BME280;49837;57.280;27.070;2022-09-01T02:18:27;100175.38;;;5.53;97.83
63691;BME280;49837;57.280;27.070;2022-09-01T02:19:24;100173.99;;;5.51;97.76
63691;BME280;49837;57.280;27.070;2022-09-01T02:20:26;100171.62;;;5.47;97.95
63691;BME280;49837;57.280;27.070;2022-09-01T02:21:26;100173.97;;;5.45;98.24
63691;BME280;49837;57.280;27.070;2022-09-01T02:22:25;100170.53;;;5.4;98.48
63691;BME280;49837;57.280;27.070;2022-09-01T02:23:26;100172.88;;;5.35;98.79
63691;BME280;49837;57.280;27.070;2022-09-01T02:24:26;100169.8;;;5.39;98.71
63691;BME280;49837;57.280;27.070;2022-09-01T02:25:27;100168.84;;;5.44;98.75
63691;BME280;49837;57.280;27.070;2022-09-01T02:26:30;100171.56;;;5.43;98.58
63691;BME280;49837;57.280;27.070;2022-09-01T02:27:28;100170.65;;;5.35;98.73
63691;BME280;49837;57.280;27.070;2022-09-01T02:28:31;100171.56;;;5.35;98.82
63691;BME280;49837;57.280;27.070;2022-09-01T02:29:29;100172.21;;;5.35;98.98
63691;BME280;49837;57.280;27.070;2022-09-01T02:30:33;100171.58;;;5.33;98.9
63691;BME280;49837;57.280;27.070;2022-09-01T02:31:35;100175.62;;;5.34;98.82
63691;BME280;49837;57.280;27.070;2022-09-01T02:32:34;100178.27;;;5.33;98.88
63691;BME280;49837;57.280;27.070;2022-09-01T02:33:36;100179.77;;;5.32;98.98
63691;BME280;49837;57.280;27.070;2022-09-01T02:34:34;100178.63;;;5.28;99.02
63691;BME280;49837;57.280;27.070;2022-09-01T02:35:36;100181.38;;;5.27;99.11
63691;BME280;49837;57.280;27.070;2022-09-01T02:36:36;100181.88;;;5.29;99.13
63691;BME280;49837;57.280;27.070;2022-09-01T02:37:37;100187.23;;;5.31;99.11
63691;BME280;49837;57.280;27.070;2022-09-01T02:38:37;100184.36;;;5.3;99.03
63691;BME280;49837;57.280;27.070;2022-09-01T02:39:36;100180.19;;;5.31;99.05
63691;BME280;49837;57.280;27.070;2022-09-01T02:40:37;100184.63;;;5.33;98.89
63691;BME280;49837;57.280;27.070;2022-09-01T02:41:37;100179.07;;;5.29;99.08
63691;BME280;49837;57.280;27.070;2022-09-01T02:42:38;100179.58;;;5.35;99.21
63691;BME280;49837;57.280;27.070;2022-09-01T02:43:38;100178.38;;;5.4;99.02
63691;BME280;49837;57.280;27.070;2022-09-01T02:44:38;100178.72;;;5.39;98.69
63691;BME280;49837;57.280;27.070;2022-09-01T02:45:39;100180.78;;;5.31;98.58
63691;BME280;49837;57.280;27.070;2022-09-01T02:46:43;100183.74;;;5.33;98.73
63691;BME280;49837;57.280;27.070;2022-09-01T02:47:41;100176.06;;;5.3;98.97
63691;BME280;49837;57.280;27.070;2022-09-01T02:48:42;100175.84;;;5.28;99.08
63691;BME280;49837;57.280;27.070;2022-09-01T02:49:41;100178.98;;;5.26;99.24
63691;BME280;49837;57.280;27.070;2022-09-01T02:50:42;100177.95;;;5.24;99.19
63691;BME280;49837;57.280;27.070;2022-09-01T02:51:44;100182.97;;;5.24;99.25
63691;BME280;49837;57.280;27.070;2022-09-01T02:52:44;100181.79;;;5.26;99.36
63691;BME280;49837;57.280;27.070;2022-09-01T02:53:44;100182.32;;;5.24;99.34
63691;BME280;49837;57.280;27.070;2022-09-01T02:54:43;100190.38;;;5.18;99.5
63691;BME280;49837;57.280;27.070;2022-09-01T02:55:44;100190.07;;;5.16;99.55
63691;BME280;49837;57.280;27.070;2022-09-01T02:56:45;100191.14;;;5.18;99.74
63691;BME280;49837;57.280;27.070;2022-09-01T02:57:44;100187.55;;;5.21;99.73
63691;BME280;49837;57.280;27.070;2022-09-01T02:58:45;100188.59;;;5.24;99.56
63691;BME280;49837;57.280;27.070;2022-09-01T02:59:45;100190.41;;;5.27;99.47
63691;BME280;49837;57.280;27.070;2022-09-01T03:00:51;100190.33;;;5.27;99.26
63691;BME280;49837;57.280;27.070;2022-09-01T03:01:51;100191.58;;;5.25;99.13
63691;BME280;49837;57.280;27.070;2022-09-01T03:02:51;100194.52;;;5.29;98.93
63691;BME280;49837;57.280;27.070;2022-09-01T03:03:53;100196.78;;;5.27;98.82
63691;BME280;49837;57.280;27.070;2022-09-01T03:04:51;100200.92;;;5.25;98.84
63691;BME280;49837;57.280;27.070;2022-09-01T03:05:52;100201.09;;;5.23;99.11
63691;BME280;49837;57.280;27.070;2022-09-01T03:06:51;100201.19;;;5.22;99.35
63691;BME280;49837;57.280;27.070;2022-09-01T03:07:54;100203.62;;;5.26;99.26
63691;BME280;49837;57.280;27.070;2022-09-01T03:08:55;100199.49;;;5.25;99.16
63691;BME280;49837;57.280;27.070;2022-09-01T03:09:53;100201.33;;;5.26;99.15
63691;BME280;49837;57.280;27.070;2022-09-01T03:10:54;100200.8;;;5.29;99.22
63691;BME280;49837;57.280;27.070;2022-09-01T03:11:54;100196.8;;;5.32;99.15
63691;BME280;49837;57.280;27.070;2022-09-01T03:12:54;100196.76;;;5.3;99.04
63691;BME280;49837;57.280;27.070;2022-09-01T03:13:55;100201.41;;;5.27;99.22
63691;BME280;49837;57.280;27.070;2022-09-01T03:14:55;100197.17;;;5.29;99.18
63691;BME280;49837;57.280;27.070;2022-09-01T03:15:55;100196.98;;;5.31;99.08
63691;BME280;49837;57.280;27.070;2022-09-01T03:16:56;100195.11;;;5.29;99.2
63691;BME280;49837;57.280;27.070;2022-09-01T03:17:56;100191.54;;;5.3;99.26
63691;BME280;49837;57.280;27.070;2022-09-01T03:18:57;100197.22;;;5.33;99.1
63691;BME280;49837;57.280;27.070;2022-09-01T03:19:57;100196.81;;;5.33;99.04
63691;BME280;49837;57.280;27.070;2022-09-01T03:20:58;100197.93;;;5.28;98.85
63691;BME280;49837;57.280;27.070;2022-09-01T03:21:58;100196.12;;;5.27;99.23
63691;BME280;49837;57.280;27.070;2022-09-01T03:23:02;100198.16;;;5.26;99.16
63691;BME280;49837;57.280;27.070;2022-09-01T03:24:01;100193.28;;;5.28;99.15
63691;BME280;49837;57.280;27.070;2022-09-01T03:25:01;100194.47;;;5.26;99.26
63691;BME280;49837;57.280;27.070;2022-09-01T03:26:01;100192.95;;;5.3;99.52
63691;BME280;49837;57.280;27.070;2022-09-01T03:27:02;100194.31;;;5.33;99.4
63691;BME280;49837;57.280;27.070;2022-09-01T03:28:03;100191.55;;;5.28;99.46
63691;BME280;49837;57.280;27.070;2022-09-01T03:29:03;100192.4;;;5.34;99.61
63691;BME280;49837;57.280;27.070;2022-09-01T03:30:04;100196.44;;;5.38;99.44
63691;BME280;49837;57.280;27.070;2022-09-01T03:31:04;100196.33;;;5.39;99.44
63691;BME280;49837;57.280;27.070;2022-09-01T03:32:04;100194.85;;;5.4;99.52
63691;BME280;49837;57.280;27.070;2022-09-01T03:33:04;100196.84;;;5.37;99.56
63691;BME280;49837;57.280;27.070;2022-09-01T03:34:05;100197.36;;;5.34;99.42
63691;BME280;49837;57.280;27.070;2022-09-01T03:35:05;100197.59;;;5.4;99.72
63691;BME280;49837;57.280;27.070;2022-09-01T03:36:06;100196.38;;;5.42;99.37
63691;BME280;49837;57.280;27.070;2022-09-01T03:37:06;100196.49;;;5.42;99.2
63691;BME280;49837;57.280;27.070;2022-09-01T03:38:06;100195.64;;;5.43;99.2
63691;BME280;49837;57.280;27.070;2022-09-01T03:39:07;100197.78;;;5.43;99.17
63691;BME280;49837;57.280;27.070;2022-09-01T03:40:08;100198.17;;;5.46;99.22
63691;BME280;49837;57.280;27.070;2022-09-01T03:41:07;100195.92;;;5.51;99.23
63691;BME280;49837;57.280;27.070;2022-09-01T03:42:08;100193.98;;;5.45;99.33
63691;BME280;49837;57.280;27.070;2022-09-01T03:43:08;100193.39;;;5.43;99.69
63691;BME280;49837;57.280;27.070;2022-09-01T03:44:09;100194.57;;;5.43;99.82
63691;BME280;49837;57.280;27.070;2022-09-01T03:45:10;100194.77;;;5.5;99.5
63691;BME280;49837;57.280;27.070;2022-09-01T03:46:10;100194.41;;;5.51;99.56
63691;BME280;49837;57.280;27.070;2022-09-01T03:47:10;100196.06;;;5.53;99.56
63691;BME280;49837;57.280;27.070;2022-09-01T03:48:11;100195.56;;;5.54;99.49
63691;BME280;49837;57.280;27.070;2022-09-01T03:49:11;100195.23;;;5.54;99.36
63691;BME280;49837;57.280;27.070;2022-09-01T03:50:14;100194.11;;;5.48;99.6
63691;BME280;49837;57.280;27.070;2022-09-01T03:51:12;100195.7;;;5.55;99.74
63691;BME280;49837;57.280;27.070;2022-09-01T03:52:12;100195.05;;;5.56;99.75
63691;BME280;49837;57.280;27.070;2022-09-01T03:53:19;100199.23;;;5.61;99.58
63691;BME280;49837;57.280;27.070;2022-09-01T03:54:16;100203.94;;;5.59;99.31
63691;BME280;49837;57.280;27.070;2022-09-01T03:55:18;100203.7;;;5.6;99.18
63691;BME280;49837;57.280;27.070;2022-09-01T03:56:17;100204.06;;;5.63;99.09
63691;BME280;49837;57.280;27.070;2022-09-01T03:57:17;100203.56;;;5.57;99.3
63691;BME280;49837;57.280;27.070;2022-09-01T03:58:18;100205.2;;;5.57;99.6
63691;BME280;49837;57.280;27.070;2022-09-01T03:59:18;100203.88;;;5.65;99.59
63691;BME280;49837;57.280;27.070;2022-09-01T04:00:20;100202.61;;;5.68;99.36
63691;BME280;49837;57.280;27.070;2022-09-01T04:01:19;100204.55;;;5.67;99.16
63691;BME280;49837;57.280;27.070;2022-09-01T04:02:19;100202.48;;;5.75;99.11
63691;BME280;49837;57.280;27.070;2022-09-01T04:03:22;100203.77;;;5.68;99.3
63691;BME280;49837;57.280;27.070;2022-09-01T04:04:20;100198.88;;;5.72;99.2
63691;BME280;49837;57.280;27.070;2022-09-01T04:05:21;100195.8;;;5.71;99.04
63691;BME280;49837;57.280;27.070;2022-09-01T04:06:21;100197.25;;;5.78;99.03
63691;BME280;49837;57.280;27.070;2022-09-01T04:07:21;100198.44;;;5.8;99.01
63691;BME280;49837;57.280;27.070;2022-09-01T04:08:22;100197.92;;;5.77;98.89
63691;BME280;49837;57.280;27.070;2022-09-01T04:09:22;100193.7;;;5.74;98.69
63691;BME280;49837;57.280;27.070;2022-09-01T04:10:23;100195.59;;;5.79;98.7
63691;BME280;49837;57.280;27.070;2022-09-01T04:11:23;100200.84;;;5.83;98.52
63691;BME280;49837;57.280;27.070;2022-09-01T04:12:23;100193.36;;;5.75;98.09
63691;BME280;49837;57.280;27.070;2022-09-01T04:13:26;100197.68;;;5.83;98.11
63691;BME280;49837;57.280;27.070;2022-09-01T04:14:24;100196.84;;;5.77;98.21
63691;BME280;49837;57.280;27.070;2022-09-01T04:15:26;100193.98;;;5.79;98.34
63691;BME280;49837;57.280;27.070;2022-09-01T04:16:28;100195.45;;;5.81;98.27
63691;BME280;49837;57.280;27.070;2022-09-01T04:17:26;100193.73;;;5.83;98.05
63691;BME280;49837;57.280;27.070;2022-09-01T04:18:27;100194.26;;;5.79;98.09
63691;BME280;49837;57.280;27.070;2022-09-01T04:19:27;100195.84;;;5.75;98.11
63691;BME280;49837;57.280;27.070;2022-09-01T04:20:28;100192.49;;;5.72;98.2
63691;BME280;49837;57.280;27.070;2022-09-01T04:21:28;100188.88;;;5.78;98.15
63691;BME280;49837;57.280;27.070;2022-09-01T04:22:28;100191.59;;;5.81;98.12
63691;BME280;49837;57.280;27.070;2022-09-01T04:23:30;100189.28;;;5.8;98.17
63691;BME280;49837;57.280;27.070;2022-09-01T04:24:32;100191.32;;;5.91;98.21
63691;BME280;49837;57.280;27.070;2022-09-01T04:25:30;100194.67;;;5.95;98.04
63691;BME280;49837;57.280;27.070;2022-09-01T04:26:30;100189.12;;;5.95;97.63
63691;BME280;49837;57.280;27.070;2022-09-01T04:27:31;100189.05;;;5.95;97.77
63691;BME280;49837;57.280;27.070;2022-09-01T04:28:32;100187.83;;;5.99;97.72
63691;BME280;49837;57.280;27.070;2022-09-01T04:29:32;100187.08;;;6.04;97.73
63691;BME280;49837;57.280;27.070;2022-09-01T04:30:32;100191.08;;;5.96;97.57
63691;BME280;49837;57.280;27.070;2022-09-01T04:31:33;100190.58;;;5.98;97.34
63691;BME280;49837;57.280;27.070;2022-09-01T04:32:33;100191.08;;;5.99;97.25
63691;BME280;49837;57.280;27.070;2022-09-01T04:33:35;100194.88;;;6.01;97.3
63691;BME280;49837;57.280;27.070;2022-09-01T04:34:36;100187.46;;;5.96;97.24
63691;BME280;49837;57.280;27.070;2022-09-01T04:35:38;100193.36;;;6.05;97.32
63691;BME280;49837;57.280;27.070;2022-09-01T04:36:36;100190.38;;;6.13;97.09
63691;BME280;49837;57.280;27.070;2022-09-01T04:37:36;100190.41;;;6.1;96.87
63691;BME280;49837;57.280;27.070;2022-09-01T04:38:36;100192.8;;;6.1;96.73
63691;BME280;49837;57.280;27.070;2022-09-01T04:39:37;100194.3;;;6.01;96.67
63691;BME280;49837;57.280;27.070;2022-09-01T04:40:38;100191.99;;;5.97;97.05
63691;BME280;49837;57.280;27.070;2022-09-01T04:41:41;100189.47;;;6.0;97.2
63691;BME280;49837;57.280;27.070;2022-09-01T04:42:39;100195.27;;;6.0;96.96
63691;BME280;49837;57.280;27.070;2022-09-01T04:43:39;100193.55;;;5.98;96.96
63691;BME280;49837;57.280;27.070;2022-09-01T04:44:40;100195.27;;;6.03;97.16
63691;BME280;49837;57.280;27.070;2022-09-01T04:45:40;100189.66;;;6.02;96.94
63691;BME280;49837;57.280;27.070;2022-09-01T04:46:41;100196.01;;;6.05;96.9
63691;BME280;49837;57.280;27.070;2022-09-01T04:47:41;100190.49;;;5.98;96.62
63691;BME280;49837;57.280;27.070;2022-09-01T04:48:42;100196.12;;;5.98;96.6
63691;BME280;49837;57.280;27.070;2022-09-01T04:49:42;100196.59;;;6.03;96.58
63691;BME280;49837;57.280;27.070;2022-09-01T04:50:42;100198.61;;;6.07;96.58
63691;BME280;49837;57.280;27.070;2022-09-01T04:51:44;100197.49;;;6.05;96.7
63691;BME280;49837;57.280;27.070;2022-09-01T04:52:45;100196.53;;;5.98;96.87
63691;BME280;49837;57.280;27.070;2022-09-01T04:53:44;100197.09;;;6.03;96.88
63691;BME280;49837;57.280;27.070;2022-09-01T04:54:44;100200.09;;;5.99;96.9
63691;BME280;49837;57.280;27.070;2022-09-01T04:55:46;100200.02;;;6.02;96.73
63691;BME280;49837;57.280;27.070;2022-09-01T04:56:48;100195.92;;;6.04;96.61
63691;BME280;49837;57.280;27.070;2022-09-01T04:57:48;100198.86;;;6.09;96.61
63691;BME280;49837;57.280;27.070;2022-09-01T04:58:47;100190.09;;;6.07;96.54
63691;BME280;49837;57.280;27.070;2022-09-01T04:59:47;100198.56;;;6.12;96.38
63691;BME280;49837;57.280;27.070;2022-09-01T05:00:48;100198.79;;;6.16;95.9
63691;BME280;49837;57.280;27.070;2022-09-01T05:01:48;100202.63;;;6.18;95.84
63691;BME280;49837;57.280;27.070;2022-09-01T05:02:53;100199.19;;;6.23;95.8
63691;BME280;49837;57.280;27.070;2022-09-01T05:03:51;100194.62;;;6.3;95.28
63691;BME280;49837;57.280;27.070;2022-09-01T05:04:51;100200.64;;;6.34;94.94
63691;BME280;49837;57.280;27.070;2022-09-01T05:05:52;100200.89;;;6.35;94.73
63691;BME280;49837;57.280;27.070;2022-09-01T05:06:54;100196.48;;;6.36;95.0
63691;BME280;49837;57.280;27.070;2022-09-01T05:07:53;100198.67;;;6.46;95.03
63691;BME280;49837;57.280;27.070;2022-09-01T05:08:53;100196.25;;;6.61;94.82
63691;BME280;49837;57.280;27.070;2022-09-01T05:09:53;100194.56;;;6.56;94.67
63691;BME280;49837;57.280;27.070;2022-09-01T05:10:57;100199.28;;;6.75;94.71
63691;BME280;49837;57.280;27.070;2022-09-01T05:12:01;100197.66;;;6.73;94.17
63691;BME280;49837;57.280;27.070;2022-09-01T05:12:59;100196.15;;;6.62;93.95
63691;BME280;49837;57.280;27.070;2022-09-01T05:13:59;100196.95;;;6.58;94.29
63691;BME280;49837;57.280;27.070;2022-09-01T05:15:00;100195.41;;;6.67;94.41
63691;BME280;49837;57.280;27.070;2022-09-01T05:16:03;100195.12;;;6.65;94.2
63691;BME280;49837;57.280;27.070;2022-09-01T05:17:02;100196.98;;;6.61;94.22
63691;BME280;49837;57.280;27.070;2022-09-01T05:18:02;100195.77;;;6.59;94.23
63691;BME280;49837;57.280;27.070;2022-09-01T05:19:02;100194.98;;;6.67;94.1
63691;BME280;49837;57.280;27.070;2022-09-01T05:20:04;100196.05;;;6.75;93.69
63691;BME280;49837;57.280;27.070;2022-09-01T05:21:07;100198.41;;;6.8;93.45
63691;BME280;49837;57.280;27.070;2022-09-01T05:22:06;100197.59;;;6.84;92.87
63691;BME280;49837;57.280;27.070;2022-09-01T05:23:05;100192.13;;;6.76;92.96